Paducah, Kentucky
Current Conditions -  °F | °C
As of 10:53 PM on Friday 21 Nov 2014 (Local Time) from KPAH Reporting Station
Overcast Overcast  
Wind Chill: 45°   Ceiling: 10000
Heat Index: 45°   Visibility: 10mi
Dew Point: 27°   Wind: 3mph
Humidity: 49%   Direction: 140°SE
Pressure: 30.29"   Gusts: NA
Location:  37.09°N, 88.59°W
Report Text: KPAH 220453Z 14003KT 10SM SCT085 OVC100 07/M03 A3029 RMK AO2 SLP258 T00721028
Loading
Personal Weather Stations






























Interactive Weather Map New forecast layout! Learn more

10-Day Weather Forecast

Advertisements
Track Severe Weather on mobile